Погода Коньяна неделю

Центральная Анатолия, Турция

06 - 12 сентября
  • 06сентября
    Сегодня
    +18°
    +31°
    Ясно и безоблачно
    ВремяПогодаТемператураВлажностьДавлениеВетер, м/сВероятность осадков
    00:00Ясно и безоблачно+20°C30 %677 мм4.2 м/с2 %
    03:00Ясно и безоблачно+19°C33 %676 мм3.7 м/с2 %
    06:00Ясно и безоблачно+18°C38 %676 мм3.1 м/с2 %
    09:00Ясно и безоблачно+23°C32 %678 мм4.9 м/с2 %
    12:00Ясно и безоблачно+27°C27 %679 мм5.1 м/с2 %
    15:00Ясно и безоблачно+30°C21 %678 мм5.2 м/с2 %
    18:00Ясно и безоблачно+29°C22 %678 мм6.2 м/с2 %
    21:00Ясно и безоблачно+24°C29 %678 мм4.1 м/с2 %
  • 07сентября
    Понедельник
    +13°
    +27°
    Ясно и безоблачно
    ВремяПогодаТемператураВлажностьДавлениеВетер, м/сВероятность осадков
    00:00Ясно и безоблачно+23°C29 %678 мм7.0 м/с2 %
    03:00Ясно и безоблачно+20°C41 %678 мм6.6 м/с2 %
    06:00Ясно и безоблачно+18°C47 %679 мм5.7 м/с2 %
    09:00Ясно и безоблачно+20°C47 %680 мм8.3 м/с2 %
    12:00Ясно и безоблачно+24°C34 %681 мм6.4 м/с2 %
    15:00Ясно и безоблачно+26°C23 %679 мм6.3 м/с2 %
    18:00Ясно и безоблачно+25°C22 %678 мм6.0 м/с2 %
    21:00Ясно и безоблачно+19°C28 %678 мм3.3 м/с2 %
  • 08сентября
    Вторник
    +12°
    +24°
    Ясно и безоблачно
    ВремяПогодаТемператураВлажностьДавлениеВетер, м/сВероятность осадков
    00:00Ясно и безоблачно+18°C32 %678 мм4.3 м/с2 %
    03:00Ясно и безоблачно+15°C41 %677 мм4.4 м/с2 %
    06:00Ясно и безоблачно+14°C52 %678 мм4.3 м/с2 %
    09:00Ясно и безоблачно+16°C52 %678 мм6.6 м/с2 %
    12:00Ясно и безоблачно+21°C38 %678 мм5.1 м/с2 %
    15:00Ясно и безоблачно+24°C25 %677 мм5.3 м/с2 %
    18:00Ясно и безоблачно+23°C21 %676 мм5.2 м/с2 %
    21:00Ясно и безоблачно+17°C29 %675 мм2.9 м/с2 %
  • 09сентября
    Среда
    +14°
    +27°
    Ясно и безоблачно
    ВремяПогодаТемператураВлажностьДавлениеВетер, м/сВероятность осадков
    00:00Ясно и безоблачно+16°C35 %675 мм4.0 м/с2 %
    03:00Ясно и безоблачно+15°C43 %674 мм3.1 м/с2 %
    06:00Ясно и безоблачно+13°C50 %674 мм2.8 м/с2 %
    09:00Ясно и безоблачно+18°C42 %675 мм4.9 м/с2 %
    12:00Ясно и безоблачно+22°C30 %675 мм3.5 м/с2 %
    15:00Ясно и безоблачно+26°C22 %675 мм3.4 м/с2 %
    18:00Ясно и безоблачно+26°C20 %674 мм4.8 м/с2 %
    21:00Ясно и безоблачно+19°C28 %674 мм2.8 м/с2 %
  • 10сентября
    Четверг
    +15°
    +29°
    Ясно и безоблачно
    ВремяПогодаТемператураВлажностьДавлениеВетер, м/сВероятность осадков
    00:00Ясно и безоблачно+17°C28 %673 мм2.9 м/с2 %
    03:00Ясно и безоблачно+15°C32 %673 мм2.1 м/с2 %
    06:00Ясно и безоблачно+15°C33 %673 мм2.4 м/с2 %
    09:00Ясно и безоблачно+21°C31 %676 мм4.1 м/с2 %
    12:00Ясно и безоблачно+25°C24 %676 мм2.9 м/с2 %
    15:00Ясно и безоблачно+28°C19 %676 мм3.3 м/с2 %
    18:00Ясно и безоблачно+29°C17 %676 мм4.3 м/с2 %
    21:00Ясно и безоблачно+21°C28 %675 мм2.1 м/с2 %
  • 11сентября
    Пятница
    +16°
    +31°
    Ясно и безоблачно
    ВремяПогодаТемператураВлажностьДавлениеВетер, м/сВероятность осадков
    03:00Ясно и безоблачно+16°C34 %674 мм2.0 м/с2 %
    09:00Ясно и безоблачно+23°C24 %677 мм3.6 м/с2 %
    15:00Ясно и безоблачно+31°C15 %679 мм3.2 м/с2 %
    21:00Ясно и безоблачно+24°C21 %678 мм1.7 м/с2 %
  • 12сентября
    Суббота
    +16°
    +32°
    Ясно и безоблачно
    ВремяПогодаТемператураВлажностьДавлениеВетер, м/сВероятность осадков
    03:00Ясно и безоблачно+18°C30 %676 мм1.9 м/с2 %
    09:00Ясно и безоблачно+22°C28 %678 мм1.2 м/с2 %
    15:00Ясно и безоблачно+31°C15 %678 мм2.2 м/с2 %
    21:00Ясно и безоблачно+24°C20 %677 мм2.1 м/с2 %
Мы используем cookies
Соглашаюсь